createdAt,value
2023-09-17T00:04:08.426Z,10.80
2023-09-17T00:09:10.472Z,10.60
2023-09-17T00:14:12.283Z,10.90
2023-09-17T00:19:14.553Z,9.90
2023-09-17T00:24:16.385Z,10.90
2023-09-17T00:29:18.213Z,11.60
2023-09-17T00:34:20.175Z,11.30
2023-09-17T00:39:22.033Z,10.90
2023-09-17T00:44:23.822Z,11.80
2023-09-17T00:49:26.226Z,10.30
2023-09-17T00:54:30.373Z,10.40
2023-09-17T00:59:32.331Z,11.40
2023-09-17T01:04:34.538Z,9.30
2023-09-17T01:09:38.538Z,11.00
2023-09-17T01:14:41.034Z,11.50
2023-09-17T01:19:44.249Z,9.90
2023-09-17T01:30:18.179Z,11.40
2023-09-17T01:35:20.173Z,9.30
2023-09-17T01:40:23.552Z,10.50
2023-09-17T01:45:28.192Z,11.00
2023-09-17T01:50:31.819Z,10.50
2023-09-17T01:55:34.004Z,10.70
2023-09-17T02:00:35.861Z,11.00
2023-09-17T02:05:37.710Z,9.80
2023-09-17T02:10:41.942Z,11.10
2023-09-17T02:15:46.410Z,10.30
2023-09-17T02:20:48.574Z,10.60
2023-09-17T02:25:50.696Z,10.30
2023-09-17T02:30:52.551Z,11.40
2023-09-17T02:35:55.120Z,10.50
2023-09-17T02:40:57.160Z,11.90
2023-09-17T02:45:59.131Z,11.20
2023-09-17T02:51:03.938Z,10.10
2023-09-17T02:56:05.795Z,9.70
2023-09-17T03:01:19.531Z,10.40
2023-09-17T03:06:21.776Z,9.70
2023-09-17T03:11:24.744Z,10.10
2023-09-17T03:16:27.119Z,9.50
2023-09-17T03:21:29.238Z,10.00
2023-09-17T03:26:31.775Z,10.30
2023-09-17T03:31:35.873Z,10.50
2023-09-17T03:36:38.525Z,10.00
2023-09-17T03:41:42.113Z,10.00
2023-09-17T03:46:44.374Z,11.60
2023-09-17T03:51:46.650Z,11.20
2023-09-17T03:56:49.732Z,11.20
2023-09-17T04:01:51.822Z,11.10
2023-09-17T04:06:53.883Z,10.20
2023-09-17T04:11:55.666Z,11.00
2023-09-17T04:16:58.140Z,12.30
2023-09-17T04:22:00.694Z,16.30
2023-09-17T04:27:02.906Z,12.40
2023-09-17T04:32:05.038Z,11.10
2023-09-17T04:37:08.028Z,11.70
2023-09-17T04:42:09.892Z,11.70
2023-09-17T04:47:12.285Z,12.70
2023-09-17T04:52:14.468Z,11.30
2023-09-17T04:57:17.241Z,11.60
2023-09-17T05:02:19.535Z,13.10
2023-09-17T05:07:22.649Z,11.00
2023-09-17T05:12:38.266Z,11.00
2023-09-17T05:17:40.248Z,11.30
2023-09-17T05:22:42.384Z,10.30
2023-09-17T05:27:50.254Z,9.70
2023-09-17T05:32:56.347Z,10.00
2023-09-17T05:37:58.704Z,8.40
2023-09-17T05:43:00.717Z,9.90
2023-09-17T05:48:03.382Z,8.80
2023-09-17T05:53:05.742Z,8.70
2023-09-17T05:58:07.721Z,9.60
2023-09-17T06:03:10.397Z,9.50
2023-09-17T06:08:12.372Z,8.60
2023-09-17T06:13:14.139Z,8.00
2023-09-17T06:18:18.183Z,8.00
2023-09-17T06:23:20.426Z,8.30
2023-09-17T06:28:23.156Z,7.70
2023-09-17T06:33:25.417Z,6.50
2023-09-17T06:38:27.398Z,5.60
2023-09-17T06:43:32.193Z,5.10
2023-09-17T06:48:34.041Z,4.90
2023-09-17T06:53:35.867Z,4.10
2023-09-17T06:58:37.752Z,4.30
2023-09-17T07:03:40.107Z,4.70
2023-09-17T07:13:47.428Z,4.20
2023-09-17T07:18:49.599Z,3.90
2023-09-17T07:23:52.266Z,4.50
2023-09-17T07:28:54.633Z,3.60
2023-09-17T07:33:56.570Z,3.30
2023-09-17T07:38:58.346Z,3.60
2023-09-17T07:44:00.233Z,3.70
2023-09-17T07:49:02.287Z,3.60
2023-09-17T07:54:04.239Z,3.70
2023-09-17T07:59:06.157Z,3.00
2023-09-17T08:04:10.829Z,4.00
2023-09-17T08:09:12.711Z,3.50
2023-09-17T08:14:15.804Z,3.60
2023-09-17T08:19:17.780Z,3.50
2023-09-17T08:24:21.855Z,3.80
2023-09-17T08:29:24.142Z,3.30
2023-09-17T08:34:25.925Z,3.70
2023-09-17T08:39:27.792Z,3.70
2023-09-17T08:44:59.751Z,3.20
2023-09-17T08:50:01.829Z,3.50
2023-09-17T08:55:06.240Z,3.20
2023-09-17T09:00:11.381Z,2.90
2023-09-17T09:05:16.298Z,2.50
2023-09-17T09:10:19.664Z,2.80
2023-09-17T09:15:22.419Z,2.10
2023-09-17T09:20:24.237Z,2.20
2023-09-17T09:25:28.211Z,2.60
2023-09-17T09:30:30.925Z,3.00
2023-09-17T09:35:33.011Z,2.10
2023-09-17T09:40:38.404Z,2.10
2023-09-17T09:45:42.318Z,2.50
2023-09-17T09:50:44.875Z,2.20
2023-09-17T09:55:48.184Z,2.50
2023-09-17T10:00:50.303Z,2.40
2023-09-17T10:05:52.192Z,2.10
2023-09-17T10:10:55.403Z,2.20
2023-09-17T10:15:57.612Z,2.20
2023-09-17T10:21:01.013Z,2.60
2023-09-17T10:26:04.747Z,2.10
2023-09-17T10:31:09.035Z,1.80
2023-09-17T10:36:12.576Z,2.20
2023-09-17T10:41:14.651Z,1.90
2023-09-17T10:51:20.279Z,2.00
2023-09-17T10:56:23.583Z,1.90
2023-09-17T11:01:30.370Z,2.20
2023-09-17T11:06:36.035Z,2.30
2023-09-17T11:11:38.300Z,3.80
2023-09-17T11:21:43.958Z,3.20
2023-09-17T11:26:47.220Z,3.20
2023-09-17T11:31:55.314Z,2.40
2023-09-17T11:36:59.221Z,2.10
2023-09-17T11:42:14.787Z,2.20
2023-09-17T11:47:18.637Z,2.50
2023-09-17T11:52:20.729Z,2.30
2023-09-17T11:57:26.954Z,1.90
2023-09-17T12:02:29.448Z,2.50
2023-09-17T12:07:42.276Z,1.90
2023-09-17T12:12:51.565Z,2.10
2023-09-17T12:17:54.131Z,2.40
2023-09-17T12:23:58.629Z,2.20
2023-09-17T12:29:00.575Z,1.90
2023-09-17T12:39:05.711Z,2.40
2023-09-17T12:44:07.634Z,2.10
2023-09-17T12:49:10.175Z,2.10
2023-09-17T12:54:12.681Z,2.00
2023-09-17T12:59:14.547Z,2.10
2023-09-17T13:04:16.483Z,2.30
2023-09-17T13:14:21.540Z,2.20
2023-09-17T13:19:23.684Z,4.80
2023-09-17T13:24:26.937Z,2.30
2023-09-17T13:29:41.466Z,1.80
2023-09-17T13:34:45.682Z,1.90
2023-09-17T13:39:50.991Z,1.70
2023-09-17T13:44:56.379Z,2.10
2023-09-17T13:49:59.913Z,2.20
2023-09-17T13:55:02.332Z,2.20
2023-09-17T14:05:14.425Z,2.10
2023-09-17T14:15:22.460Z,2.00
2023-09-17T14:20:24.259Z,2.10
2023-09-17T14:25:26.302Z,2.00
2023-09-17T14:35:31.201Z,2.00
2023-09-17T14:40:33.221Z,2.20
2023-09-17T14:50:36.922Z,2.50
2023-09-17T14:55:39.080Z,2.30
2023-09-17T15:00:40.871Z,2.40
2023-09-17T15:05:42.708Z,2.20
2023-09-17T15:15:50.331Z,1.90
2023-09-17T15:20:52.126Z,2.10
2023-09-17T15:25:53.917Z,2.10
2023-09-17T15:30:55.854Z,2.40
2023-09-17T15:35:58.978Z,2.40
2023-09-17T15:41:04.679Z,2.40
2023-09-17T15:46:06.647Z,2.30
2023-09-17T15:51:08.492Z,2.00
2023-09-17T15:56:10.377Z,2.40
2023-09-17T16:01:12.381Z,2.30
2023-09-17T16:06:17.530Z,2.80
2023-09-17T16:11:19.583Z,2.50
2023-09-17T16:21:23.380Z,3.70
2023-09-17T16:26:25.171Z,2.90
2023-09-17T16:31:27.977Z,3.10
2023-09-17T16:36:31.507Z,3.30
2023-09-17T16:41:33.459Z,3.10
2023-09-17T16:46:35.320Z,4.60
2023-09-17T16:51:45.110Z,3.60
2023-09-17T16:56:47.988Z,3.30
2023-09-17T17:01:49.943Z,3.80
2023-09-17T17:06:52.054Z,3.80
2023-09-17T17:11:54.752Z,3.70
2023-09-17T17:16:58.525Z,6.40
2023-09-17T17:22:00.482Z,4.40
2023-09-17T17:27:02.498Z,4.40
2023-09-17T17:32:04.795Z,4.60
2023-09-17T17:37:06.784Z,5.00
2023-09-17T17:42:08.539Z,4.80
2023-09-17T17:47:10.320Z,6.00
2023-09-17T17:52:12.134Z,6.00
2023-09-17T17:57:14.295Z,6.70
2023-09-17T18:02:16.380Z,5.90
2023-09-17T18:07:18.440Z,5.20
2023-09-17T18:12:20.489Z,6.30
2023-09-17T18:17:22.511Z,6.20
2023-09-17T18:22:24.604Z,6.80
2023-09-17T18:27:26.993Z,6.40
2023-09-17T18:32:28.762Z,6.00
2023-09-17T18:37:31.539Z,5.90
2023-09-17T18:42:34.566Z,6.40
2023-09-17T18:47:36.457Z,6.70
2023-09-17T18:52:38.375Z,6.60
2023-09-17T18:57:41.054Z,6.30
2023-09-17T19:02:44.672Z,7.60
2023-09-17T19:07:47.356Z,6.50
2023-09-17T19:12:57.499Z,6.70
2023-09-17T19:17:59.406Z,7.00
2023-09-17T19:23:01.375Z,7.10
2023-09-17T19:28:05.692Z,5.70
2023-09-17T19:33:07.840Z,5.10
2023-09-17T19:38:09.927Z,6.70
2023-09-17T19:43:12.072Z,6.80
2023-09-17T19:49:46.866Z,6.80
2023-09-17T19:55:28.918Z,5.00
2023-09-17T20:00:34.595Z,5.20
2023-09-17T20:05:36.892Z,5.40
2023-09-17T20:10:39.874Z,6.60
2023-09-17T20:15:46.427Z,6.70
2023-09-17T20:20:49.578Z,7.30
2023-09-17T20:25:51.577Z,7.80
2023-09-17T20:30:53.777Z,7.00
2023-09-17T20:35:56.358Z,7.60
2023-09-17T20:40:59.243Z,9.50
2023-09-17T20:46:01.101Z,8.90
2023-09-17T20:51:05.050Z,8.00
2023-09-17T20:56:07.518Z,9.00
2023-09-17T21:01:09.520Z,7.10
2023-09-17T21:06:11.722Z,9.30
2023-09-17T21:11:17.543Z,8.40
2023-09-17T21:16:19.936Z,8.20
2023-09-17T21:21:21.903Z,8.80
2023-09-17T21:26:24.958Z,8.70
2023-09-17T21:36:30.185Z,8.20
2023-09-17T21:41:32.312Z,8.90
2023-09-17T21:46:35.483Z,7.90
2023-09-17T21:56:39.313Z,7.60
2023-09-17T22:01:41.531Z,7.50
2023-09-17T22:06:43.568Z,7.80
2023-09-17T22:11:45.337Z,7.00
2023-09-17T22:16:47.233Z,8.60
2023-09-17T22:21:49.709Z,7.50
2023-09-17T22:26:52.141Z,8.30
2023-09-17T22:31:54.128Z,9.60
2023-09-17T22:36:57.693Z,9.30
2023-09-17T22:41:59.617Z,8.90
2023-09-17T22:47:01.523Z,10.60
2023-09-17T22:52:05.026Z,8.30
2023-09-17T22:57:07.057Z,7.50
2023-09-17T23:02:09.358Z,6.80
2023-09-17T23:07:11.226Z,8.00
2023-09-17T23:12:15.681Z,7.50
2023-09-17T23:17:18.693Z,7.10
2023-09-17T23:22:20.612Z,6.90
2023-09-17T23:27:25.053Z,7.40
2023-09-17T23:32:31.430Z,6.70
2023-09-17T23:37:33.401Z,7.00
2023-09-17T23:42:35.483Z,6.40
2023-09-17T23:47:37.376Z,6.50
2023-09-17T23:52:40.230Z,7.10
2023-09-17T23:57:42.295Z,7.00
